sensor_id;sensor_type;location;lat;lon;timestamp;P1;durP1;ratioP1;P2;durP2;ratioP2
36653;SDS011;22650;49.350;20.898;2022-11-13T00:02:32;95.63;;;32.30;;
36653;SDS011;22650;49.350;20.898;2022-11-13T00:05:24;120.30;;;40.33;;
36653;SDS011;22650;49.350;20.898;2022-11-13T00:08:16;84.45;;;28.95;;
36653;SDS011;22650;49.350;20.898;2022-11-13T00:11:10;122.20;;;34.17;;
36653;SDS011;22650;49.350;20.898;2022-11-13T00:14:04;153.65;;;35.08;;
36653;SDS011;22650;49.350;20.898;2022-11-13T00:16:56;78.32;;;28.67;;
36653;SDS011;22650;49.350;20.898;2022-11-13T00:19:48;119.73;;;30.80;;
36653;SDS011;22650;49.350;20.898;2022-11-13T00:22:39;129.35;;;30.80;;
36653;SDS011;22650;49.350;20.898;2022-11-13T00:25:33;87.18;;;26.05;;
36653;SDS011;22650;49.350;20.898;2022-11-13T00:28:27;103.47;;;25.05;;
36653;SDS011;22650;49.350;20.898;2022-11-13T00:31:19;91.07;;;28.27;;
36653;SDS011;22650;49.350;20.898;2022-11-13T00:34:12;90.53;;;26.25;;
36653;SDS011;22650;49.350;20.898;2022-11-13T00:37:24;60.55;;;23.23;;
36653;SDS011;22650;49.350;20.898;2022-11-13T00:40:16;71.77;;;24.83;;
36653;SDS011;22650;49.350;20.898;2022-11-13T00:43:07;64.43;;;23.60;;
36653;SDS011;22650;49.350;20.898;2022-11-13T00:46:01;88.47;;;28.58;;
36653;SDS011;22650;49.350;20.898;2022-11-13T00:48:53;95.82;;;32.20;;
36653;SDS011;22650;49.350;20.898;2022-11-13T00:51:45;161.60;;;42.22;;
36653;SDS011;22650;49.350;20.898;2022-11-13T00:54:37;89.80;;;30.50;;
36653;SDS011;22650;49.350;20.898;2022-11-13T00:57:29;101.13;;;37.13;;
36653;SDS011;22650;49.350;20.898;2022-11-13T01:00:21;74.45;;;26.88;;
36653;SDS011;22650;49.350;20.898;2022-11-13T01:03:15;117.43;;;28.80;;
36653;SDS011;22650;49.350;20.898;2022-11-13T01:06:09;66.38;;;27.55;;
36653;SDS011;22650;49.350;20.898;2022-11-13T01:09:02;59.20;;;24.85;;
36653;SDS011;22650;49.350;20.898;2022-11-13T01:11:54;50.80;;;21.83;;
36653;SDS011;22650;49.350;20.898;2022-11-13T01:14:46;51.47;;;22.40;;
36653;SDS011;22650;49.350;20.898;2022-11-13T01:17:37;42.08;;;18.73;;
36653;SDS011;22650;49.350;20.898;2022-11-13T01:20:31;38.13;;;17.40;;
36653;SDS011;22650;49.350;20.898;2022-11-13T01:23:23;45.78;;;20.02;;
36653;SDS011;22650;49.350;20.898;2022-11-13T01:26:16;37.80;;;16.80;;
36653;SDS011;22650;49.350;20.898;2022-11-13T01:29:10;51.35;;;19.45;;
36653;SDS011;22650;49.350;20.898;2022-11-13T01:32:03;54.90;;;20.85;;
36653;SDS011;22650;49.350;20.898;2022-11-13T01:34:55;50.03;;;20.83;;
36653;SDS011;22650;49.350;20.898;2022-11-13T01:40:43;49.72;;;18.60;;
36653;SDS011;22650;49.350;20.898;2022-11-13T01:43:36;34.08;;;16.33;;
36653;SDS011;22650;49.350;20.898;2022-11-13T01:49:25;49.40;;;20.67;;
36653;SDS011;22650;49.350;20.898;2022-11-13T01:52:22;44.13;;;20.20;;
36653;SDS011;22650;49.350;20.898;2022-11-13T01:55:17;64.53;;;23.92;;
36653;SDS011;22650;49.350;20.898;2022-11-13T01:58:10;44.45;;;20.63;;
36653;SDS011;22650;49.350;20.898;2022-11-13T02:03:54;52.15;;;19.33;;
36653;SDS011;22650;49.350;20.898;2022-11-13T02:06:47;60.95;;;25.67;;
36653;SDS011;22650;49.350;20.898;2022-11-13T02:09:43;76.38;;;28.65;;
36653;SDS011;22650;49.350;20.898;2022-11-13T02:12:39;66.93;;;22.65;;
36653;SDS011;22650;49.350;20.898;2022-11-13T02:15:32;46.00;;;19.10;;
36653;SDS011;22650;49.350;20.898;2022-11-13T02:18:25;68.30;;;23.90;;
36653;SDS011;22650;49.350;20.898;2022-11-13T02:21:23;70.43;;;23.80;;
36653;SDS011;22650;49.350;20.898;2022-11-13T02:24:23;50.17;;;18.73;;
36653;SDS011;22650;49.350;20.898;2022-11-13T02:27:19;61.40;;;20.95;;
36653;SDS011;22650;49.350;20.898;2022-11-13T02:30:16;51.35;;;19.10;;
36653;SDS011;22650;49.350;20.898;2022-11-13T02:33:18;50.50;;;20.08;;
36653;SDS011;22650;49.350;20.898;2022-11-13T02:36:13;60.88;;;19.75;;
36653;SDS011;22650;49.350;20.898;2022-11-13T02:39:07;52.72;;;18.55;;
36653;SDS011;22650;49.350;20.898;2022-11-13T02:42:02;69.55;;;22.88;;
36653;SDS011;22650;49.350;20.898;2022-11-13T02:44:54;74.28;;;21.77;;
36653;SDS011;22650;49.350;20.898;2022-11-13T02:47:46;63.20;;;21.27;;
36653;SDS011;22650;49.350;20.898;2022-11-13T02:50:38;40.40;;;16.42;;
36653;SDS011;22650;49.350;20.898;2022-11-13T02:53:32;73.95;;;18.67;;
36653;SDS011;22650;49.350;20.898;2022-11-13T02:56:24;66.47;;;20.80;;
36653;SDS011;22650;49.350;20.898;2022-11-13T02:59:17;68.13;;;21.90;;
36653;SDS011;22650;49.350;20.898;2022-11-13T03:02:10;52.50;;;19.20;;
36653;SDS011;22650;49.350;20.898;2022-11-13T03:05:01;36.78;;;16.98;;
36653;SDS011;22650;49.350;20.898;2022-11-13T03:08:02;88.97;;;21.48;;
36653;SDS011;22650;49.350;20.898;2022-11-13T03:10:56;62.25;;;22.17;;
36653;SDS011;22650;49.350;20.898;2022-11-13T03:13:48;62.75;;;20.08;;
36653;SDS011;22650;49.350;20.898;2022-11-13T03:16:41;96.97;;;22.80;;
36653;SDS011;22650;49.350;20.898;2022-11-13T03:19:33;56.95;;;20.27;;
36653;SDS011;22650;49.350;20.898;2022-11-13T03:22:26;52.45;;;19.30;;
36653;SDS011;22650;49.350;20.898;2022-11-13T03:25:18;50.33;;;18.27;;
36653;SDS011;22650;49.350;20.898;2022-11-13T03:28:10;63.55;;;21.00;;
36653;SDS011;22650;49.350;20.898;2022-11-13T03:31:02;64.72;;;17.63;;
36653;SDS011;22650;49.350;20.898;2022-11-13T03:33:56;43.55;;;17.10;;
36653;SDS011;22650;49.350;20.898;2022-11-13T03:36:49;54.00;;;17.35;;
36653;SDS011;22650;49.350;20.898;2022-11-13T03:39:41;54.03;;;18.73;;
36653;SDS011;22650;49.350;20.898;2022-11-13T03:42:33;50.03;;;18.75;;
36653;SDS011;22650;49.350;20.898;2022-11-13T03:45:25;69.53;;;20.33;;
36653;SDS011;22650;49.350;20.898;2022-11-13T03:48:17;79.97;;;23.50;;
36653;SDS011;22650;49.350;20.898;2022-11-13T03:51:11;83.97;;;21.27;;
36653;SDS011;22650;49.350;20.898;2022-11-13T03:54:03;59.22;;;19.67;;
36653;SDS011;22650;49.350;20.898;2022-11-13T03:56:55;44.97;;;19.15;;
36653;SDS011;22650;49.350;20.898;2022-11-13T03:59:47;55.57;;;21.57;;
36653;SDS011;22650;49.350;20.898;2022-11-13T04:02:39;53.93;;;18.33;;
36653;SDS011;22650;49.350;20.898;2022-11-13T04:05:31;72.30;;;23.40;;
36653;SDS011;22650;49.350;20.898;2022-11-13T04:08:24;58.38;;;19.85;;
36653;SDS011;22650;49.350;20.898;2022-11-13T04:11:16;59.05;;;20.95;;
36653;SDS011;22650;49.350;20.898;2022-11-13T04:14:08;45.27;;;18.13;;
36653;SDS011;22650;49.350;20.898;2022-11-13T04:17:00;82.78;;;26.08;;
36653;SDS011;22650;49.350;20.898;2022-11-13T04:19:52;52.20;;;19.27;;
36653;SDS011;22650;49.350;20.898;2022-11-13T04:22:44;51.58;;;19.40;;
36653;SDS011;22650;49.350;20.898;2022-11-13T04:25:37;76.72;;;19.35;;
36653;SDS011;22650;49.350;20.898;2022-11-13T04:28:29;43.80;;;16.67;;
36653;SDS011;22650;49.350;20.898;2022-11-13T04:31:21;49.92;;;18.33;;
36653;SDS011;22650;49.350;20.898;2022-11-13T04:34:13;73.10;;;22.55;;
36653;SDS011;22650;49.350;20.898;2022-11-13T04:37:05;57.78;;;20.40;;
36653;SDS011;22650;49.350;20.898;2022-11-13T04:39:57;51.43;;;19.80;;
36653;SDS011;22650;49.350;20.898;2022-11-13T04:42:51;61.03;;;23.85;;
36653;SDS011;22650;49.350;20.898;2022-11-13T04:45:41;54.50;;;19.25;;
36653;SDS011;22650;49.350;20.898;2022-11-13T04:48:33;48.67;;;18.33;;
36653;SDS011;22650;49.350;20.898;2022-11-13T04:51:25;46.58;;;19.48;;
36653;SDS011;22650;49.350;20.898;2022-11-13T04:54:17;66.20;;;22.03;;
36653;SDS011;22650;49.350;20.898;2022-11-13T04:57:17;59.90;;;19.80;;
36653;SDS011;22650;49.350;20.898;2022-11-13T05:00:11;55.72;;;17.48;;
36653;SDS011;22650;49.350;20.898;2022-11-13T05:03:04;46.03;;;18.52;;
36653;SDS011;22650;49.350;20.898;2022-11-13T05:06:00;68.32;;;18.83;;
36653;SDS011;22650;49.350;20.898;2022-11-13T05:08:53;46.83;;;17.02;;
36653;SDS011;22650;49.350;20.898;2022-11-13T05:11:45;43.87;;;16.67;;
36653;SDS011;22650;49.350;20.898;2022-11-13T05:14:37;49.85;;;18.15;;
36653;SDS011;22650;49.350;20.898;2022-11-13T05:17:31;51.75;;;18.08;;
36653;SDS011;22650;49.350;20.898;2022-11-13T05:20:23;51.80;;;19.02;;
36653;SDS011;22650;49.350;20.898;2022-11-13T05:23:15;45.27;;;18.40;;
36653;SDS011;22650;49.350;20.898;2022-11-13T05:26:08;62.40;;;19.43;;
36653;SDS011;22650;49.350;20.898;2022-11-13T05:29:02;55.72;;;17.48;;
36653;SDS011;22650;49.350;20.898;2022-11-13T05:31:54;47.75;;;15.90;;
36653;SDS011;22650;49.350;20.898;2022-11-13T05:34:47;71.32;;;18.48;;
36653;SDS011;22650;49.350;20.898;2022-11-13T05:37:39;61.78;;;18.77;;
36653;SDS011;22650;49.350;20.898;2022-11-13T05:40:31;57.87;;;19.50;;
36653;SDS011;22650;49.350;20.898;2022-11-13T05:43:23;50.57;;;18.57;;
36653;SDS011;22650;49.350;20.898;2022-11-13T05:46:16;60.53;;;20.50;;
36653;SDS011;22650;49.350;20.898;2022-11-13T05:49:09;51.88;;;17.90;;
36653;SDS011;22650;49.350;20.898;2022-11-13T05:52:02;52.00;;;18.65;;
36653;SDS011;22650;49.350;20.898;2022-11-13T05:54:54;49.15;;;20.02;;
36653;SDS011;22650;49.350;20.898;2022-11-13T05:57:46;34.55;;;15.40;;
36653;SDS011;22650;49.350;20.898;2022-11-13T06:00:38;53.20;;;18.92;;
36653;SDS011;22650;49.350;20.898;2022-11-13T06:03:30;62.38;;;22.92;;
36653;SDS011;22650;49.350;20.898;2022-11-13T06:06:22;53.13;;;19.13;;
36653;SDS011;22650;49.350;20.898;2022-11-13T06:09:16;68.85;;;22.25;;
36653;SDS011;22650;49.350;20.898;2022-11-13T06:12:08;48.75;;;15.82;;
36653;SDS011;22650;49.350;20.898;2022-11-13T06:15:00;65.33;;;23.37;;
36653;SDS011;22650;49.350;20.898;2022-11-13T06:17:52;55.10;;;19.35;;
36653;SDS011;22650;49.350;20.898;2022-11-13T06:20:44;78.20;;;24.27;;
36653;SDS011;22650;49.350;20.898;2022-11-13T06:23:36;79.15;;;24.58;;
36653;SDS011;22650;49.350;20.898;2022-11-13T06:26:31;76.00;;;24.38;;
36653;SDS011;22650;49.350;20.898;2022-11-13T06:29:23;51.03;;;20.23;;
36653;SDS011;22650;49.350;20.898;2022-11-13T06:32:15;48.17;;;17.15;;
36653;SDS011;22650;49.350;20.898;2022-11-13T06:35:07;74.90;;;22.02;;
36653;SDS011;22650;49.350;20.898;2022-11-13T06:37:59;50.90;;;18.83;;
36653;SDS011;22650;49.350;20.898;2022-11-13T06:40:51;49.13;;;18.73;;
36653;SDS011;22650;49.350;20.898;2022-11-13T06:43:45;55.55;;;19.05;;
36653;SDS011;22650;49.350;20.898;2022-11-13T06:46:37;54.65;;;18.80;;
36653;SDS011;22650;49.350;20.898;2022-11-13T06:49:29;81.63;;;23.13;;
36653;SDS011;22650;49.350;20.898;2022-11-13T06:52:21;35.42;;;14.55;;
36653;SDS011;22650;49.350;20.898;2022-11-13T06:55:13;43.22;;;16.35;;
36653;SDS011;22650;49.350;20.898;2022-11-13T06:58:05;63.47;;;16.13;;
36653;SDS011;22650;49.350;20.898;2022-11-13T07:01:03;44.95;;;15.48;;
36653;SDS011;22650;49.350;20.898;2022-11-13T07:03:56;53.97;;;19.15;;
36653;SDS011;22650;49.350;20.898;2022-11-13T07:06:48;43.20;;;15.15;;
36653;SDS011;22650;49.350;20.898;2022-11-13T07:09:40;37.30;;;14.97;;
36653;SDS011;22650;49.350;20.898;2022-11-13T07:12:32;38.80;;;17.05;;
36653;SDS011;22650;49.350;20.898;2022-11-13T07:15:23;42.90;;;15.23;;
36653;SDS011;22650;49.350;20.898;2022-11-13T07:18:17;39.25;;;15.75;;
36653;SDS011;22650;49.350;20.898;2022-11-13T07:21:13;44.95;;;16.35;;
36653;SDS011;22650;49.350;20.898;2022-11-13T07:24:05;39.03;;;15.13;;
36653;SDS011;22650;49.350;20.898;2022-11-13T07:27:04;32.92;;;15.63;;
36653;SDS011;22650;49.350;20.898;2022-11-13T07:29:56;39.80;;;14.80;;
36653;SDS011;22650;49.350;20.898;2022-11-13T07:32:53;40.22;;;15.18;;
36653;SDS011;22650;49.350;20.898;2022-11-13T07:35:46;41.50;;;15.45;;
36653;SDS011;22650;49.350;20.898;2022-11-13T07:41:29;46.47;;;16.30;;
36653;SDS011;22650;49.350;20.898;2022-11-13T07:44:21;37.00;;;13.55;;
36653;SDS011;22650;49.350;20.898;2022-11-13T07:47:33;35.93;;;13.83;;
36653;SDS011;22650;49.350;20.898;2022-11-13T07:50:25;41.42;;;14.13;;
36653;SDS011;22650;49.350;20.898;2022-11-13T07:53:19;29.00;;;13.07;;
36653;SDS011;22650;49.350;20.898;2022-11-13T07:56:12;32.03;;;13.40;;
36653;SDS011;22650;49.350;20.898;2022-11-13T07:59:11;40.00;;;17.00;;
36653;SDS011;22650;49.350;20.898;2022-11-13T08:02:03;44.88;;;17.75;;
36653;SDS011;22650;49.350;20.898;2022-11-13T08:07:48;31.08;;;12.98;;
36653;SDS011;22650;49.350;20.898;2022-11-13T08:10:42;38.45;;;16.42;;
36653;SDS011;22650;49.350;20.898;2022-11-13T08:13:35;24.20;;;11.05;;
36653;SDS011;22650;49.350;20.898;2022-11-13T08:16:27;30.23;;;12.35;;
36653;SDS011;22650;49.350;20.898;2022-11-13T08:19:19;26.27;;;10.33;;
36653;SDS011;22650;49.350;20.898;2022-11-13T08:22:11;21.90;;;9.73;;
36653;SDS011;22650;49.350;20.898;2022-11-13T08:25:03;32.20;;;11.47;;
36653;SDS011;22650;49.350;20.898;2022-11-13T08:27:57;34.03;;;15.25;;
36653;SDS011;22650;49.350;20.898;2022-11-13T08:30:49;33.58;;;14.38;;
36653;SDS011;22650;49.350;20.898;2022-11-13T08:33:42;23.20;;;9.30;;
36653;SDS011;22650;49.350;20.898;2022-11-13T08:36:33;19.05;;;9.48;;
36653;SDS011;22650;49.350;20.898;2022-11-13T08:39:25;12.70;;;7.57;;
36653;SDS011;22650;49.350;20.898;2022-11-13T08:42:17;21.50;;;9.17;;
36653;SDS011;22650;49.350;20.898;2022-11-13T08:45:11;23.77;;;9.52;;
36653;SDS011;22650;49.350;20.898;2022-11-13T08:48:03;17.52;;;9.43;;
36653;SDS011;22650;49.350;20.898;2022-11-13T08:53:48;18.05;;;8.57;;
36653;SDS011;22650;49.350;20.898;2022-11-13T08:56:40;27.00;;;11.95;;
36653;SDS011;22650;49.350;20.898;2022-11-13T08:59:32;21.15;;;9.23;;
36653;SDS011;22650;49.350;20.898;2022-11-13T09:02:25;21.98;;;8.82;;
36653;SDS011;22650;49.350;20.898;2022-11-13T09:05:17;14.57;;;8.23;;
36653;SDS011;22650;49.350;20.898;2022-11-13T09:08:09;18.70;;;9.10;;
36653;SDS011;22650;49.350;20.898;2022-11-13T09:11:02;24.08;;;9.35;;
36653;SDS011;22650;49.350;20.898;2022-11-13T09:13:55;21.35;;;9.80;;
36653;SDS011;22650;49.350;20.898;2022-11-13T09:16:47;22.95;;;8.73;;
36653;SDS011;22650;49.350;20.898;2022-11-13T09:19:40;17.40;;;8.77;;
36653;SDS011;22650;49.350;20.898;2022-11-13T09:22:32;18.42;;;9.35;;
36653;SDS011;22650;49.350;20.898;2022-11-13T09:25:25;21.60;;;9.77;;
36653;SDS011;22650;49.350;20.898;2022-11-13T09:28:24;16.25;;;8.55;;
36653;SDS011;22650;49.350;20.898;2022-11-13T09:31:17;23.05;;;9.93;;
36653;SDS011;22650;49.350;20.898;2022-11-13T09:34:08;17.38;;;8.15;;
36653;SDS011;22650;49.350;20.898;2022-11-13T09:37:02;15.87;;;7.97;;
36653;SDS011;22650;49.350;20.898;2022-11-13T09:39:54;15.48;;;8.20;;
36653;SDS011;22650;49.350;20.898;2022-11-13T09:42:46;17.45;;;9.43;;
36653;SDS011;22650;49.350;20.898;2022-11-13T09:45:37;15.95;;;7.65;;
36653;SDS011;22650;49.350;20.898;2022-11-13T09:48:32;15.90;;;8.77;;
36653;SDS011;22650;49.350;20.898;2022-11-13T09:51:26;24.75;;;13.70;;
36653;SDS011;22650;49.350;20.898;2022-11-13T09:54:26;20.55;;;8.70;;
36653;SDS011;22650;49.350;20.898;2022-11-13T09:57:21;14.70;;;8.02;;
36653;SDS011;22650;49.350;20.898;2022-11-13T10:00:19;23.95;;;8.95;;
36653;SDS011;22650;49.350;20.898;2022-11-13T10:03:17;16.08;;;7.88;;
36653;SDS011;22650;49.350;20.898;2022-11-13T10:06:43;13.30;;;8.35;;
36653;SDS011;22650;49.350;20.898;2022-11-13T10:09:51;16.75;;;7.60;;
36653;SDS011;22650;49.350;20.898;2022-11-13T10:12:50;19.23;;;11.50;;
36653;SDS011;22650;49.350;20.898;2022-11-13T10:15:45;18.15;;;8.80;;
36653;SDS011;22650;49.350;20.898;2022-11-13T10:18:39;19.08;;;8.68;;
36653;SDS011;22650;49.350;20.898;2022-11-13T10:21:36;18.00;;;7.80;;
36653;SDS011;22650;49.350;20.898;2022-11-13T10:24:35;12.07;;;7.15;;
36653;SDS011;22650;49.350;20.898;2022-11-13T10:27:31;18.90;;;8.75;;
36653;SDS011;22650;49.350;20.898;2022-11-13T10:30:24;19.65;;;9.25;;
36653;SDS011;22650;49.350;20.898;2022-11-13T10:33:17;21.38;;;9.25;;
36653;SDS011;22650;49.350;20.898;2022-11-13T10:36:11;18.40;;;8.90;;
36653;SDS011;22650;49.350;20.898;2022-11-13T10:39:11;17.10;;;8.00;;
36653;SDS011;22650;49.350;20.898;2022-11-13T10:42:03;20.87;;;9.33;;
36653;SDS011;22650;49.350;20.898;2022-11-13T10:44:57;20.75;;;10.20;;
36653;SDS011;22650;49.350;20.898;2022-11-13T10:47:50;13.82;;;8.57;;
36653;SDS011;22650;49.350;20.898;2022-11-13T10:50:58;14.90;;;8.25;;
36653;SDS011;22650;49.350;20.898;2022-11-13T10:53:52;17.50;;;8.23;;
36653;SDS011;22650;49.350;20.898;2022-11-13T10:56:44;14.05;;;7.60;;
36653;SDS011;22650;49.350;20.898;2022-11-13T10:59:47;13.53;;;8.13;;
36653;SDS011;22650;49.350;20.898;2022-11-13T11:02:47;16.55;;;8.68;;
36653;SDS011;22650;49.350;20.898;2022-11-13T11:05:49;15.90;;;8.13;;
36653;SDS011;22650;49.350;20.898;2022-11-13T11:08:42;14.70;;;7.07;;
36653;SDS011;22650;49.350;20.898;2022-11-13T11:11:34;16.77;;;8.02;;
36653;SDS011;22650;49.350;20.898;2022-11-13T11:14:56;15.73;;;8.90;;
36653;SDS011;22650;49.350;20.898;2022-11-13T11:17:58;15.90;;;7.80;;
36653;SDS011;22650;49.350;20.898;2022-11-13T11:20:53;18.75;;;9.07;;
36653;SDS011;22650;49.350;20.898;2022-11-13T11:23:48;14.43;;;7.80;;
36653;SDS011;22650;49.350;20.898;2022-11-13T11:26:46;17.60;;;8.93;;
36653;SDS011;22650;49.350;20.898;2022-11-13T11:29:43;16.92;;;9.15;;
36653;SDS011;22650;49.350;20.898;2022-11-13T11:32:40;17.05;;;8.65;;
36653;SDS011;22650;49.350;20.898;2022-11-13T11:35:38;15.55;;;8.43;;
36653;SDS011;22650;49.350;20.898;2022-11-13T11:38:34;15.75;;;7.57;;
36653;SDS011;22650;49.350;20.898;2022-11-13T11:41:33;14.73;;;8.32;;
36653;SDS011;22650;49.350;20.898;2022-11-13T11:44:37;17.55;;;9.35;;
36653;SDS011;22650;49.350;20.898;2022-11-13T11:47:37;21.67;;;8.93;;
36653;SDS011;22650;49.350;20.898;2022-11-13T11:50:33;15.23;;;8.00;;
36653;SDS011;22650;49.350;20.898;2022-11-13T11:53:32;16.42;;;8.18;;
36653;SDS011;22650;49.350;20.898;2022-11-13T11:56:32;19.10;;;8.60;;
36653;SDS011;22650;49.350;20.898;2022-11-13T11:59:33;12.80;;;7.10;;
36653;SDS011;22650;49.350;20.898;2022-11-13T12:02:48;21.20;;;7.85;;
36653;SDS011;22650;49.350;20.898;2022-11-13T12:06:00;10.70;;;6.93;;
36653;SDS011;22650;49.350;20.898;2022-11-13T12:09:02;14.35;;;7.90;;
36653;SDS011;22650;49.350;20.898;2022-11-13T12:12:04;15.07;;;8.13;;
36653;SDS011;22650;49.350;20.898;2022-11-13T12:15:06;17.67;;;8.70;;
36653;SDS011;22650;49.350;20.898;2022-11-13T12:18:02;16.13;;;8.13;;
36653;SDS011;22650;49.350;20.898;2022-11-13T12:21:04;15.93;;;7.78;;
36653;SDS011;22650;49.350;20.898;2022-11-13T12:24:13;17.38;;;8.35;;
36653;SDS011;22650;49.350;20.898;2022-11-13T12:27:21;13.55;;;8.05;;
36653;SDS011;22650;49.350;20.898;2022-11-13T12:30:20;12.93;;;7.05;;
36653;SDS011;22650;49.350;20.898;2022-11-13T12:33:20;12.75;;;6.82;;
36653;SDS011;22650;49.350;20.898;2022-11-13T12:39:30;16.05;;;8.25;;
36653;SDS011;22650;49.350;20.898;2022-11-13T12:42:29;18.60;;;8.48;;
36653;SDS011;22650;49.350;20.898;2022-11-13T12:45:25;13.65;;;8.15;;
36653;SDS011;22650;49.350;20.898;2022-11-13T12:48:32;13.68;;;7.35;;
36653;SDS011;22650;49.350;20.898;2022-11-13T12:51:36;13.52;;;7.57;;
36653;SDS011;22650;49.350;20.898;2022-11-13T12:54:31;18.17;;;8.57;;
36653;SDS011;22650;49.350;20.898;2022-11-13T12:57:25;14.27;;;8.40;;
36653;SDS011;22650;49.350;20.898;2022-11-13T13:00:21;14.75;;;7.28;;
36653;SDS011;22650;49.350;20.898;2022-11-13T13:03:24;11.13;;;6.40;;
36653;SDS011;22650;49.350;20.898;2022-11-13T13:06:41;13.85;;;7.07;;
36653;SDS011;22650;49.350;20.898;2022-11-13T13:09:50;15.05;;;7.50;;
36653;SDS011;22650;49.350;20.898;2022-11-13T13:12:52;16.55;;;8.13;;
36653;SDS011;22650;49.350;20.898;2022-11-13T13:15:52;19.75;;;7.40;;
36653;SDS011;22650;49.350;20.898;2022-11-13T13:18:47;12.88;;;7.03;;
36653;SDS011;22650;49.350;20.898;2022-11-13T13:21:39;15.73;;;6.32;;
36653;SDS011;22650;49.350;20.898;2022-11-13T13:24:32;15.45;;;7.53;;
36653;SDS011;22650;49.350;20.898;2022-11-13T13:27:27;14.93;;;7.80;;
36653;SDS011;22650;49.350;20.898;2022-11-13T13:30:22;13.02;;;7.03;;
36653;SDS011;22650;49.350;20.898;2022-11-13T13:33:19;17.50;;;8.02;;
36653;SDS011;22650;49.350;20.898;2022-11-13T13:36:18;15.02;;;7.75;;
36653;SDS011;22650;49.350;20.898;2022-11-13T13:39:18;17.13;;;8.50;;
36653;SDS011;22650;49.350;20.898;2022-11-13T13:42:21;15.10;;;7.85;;
36653;SDS011;22650;49.350;20.898;2022-11-13T13:45:25;16.10;;;7.80;;
36653;SDS011;22650;49.350;20.898;2022-11-13T13:48:25;18.83;;;8.45;;
36653;SDS011;22650;49.350;20.898;2022-11-13T13:51:23;17.00;;;9.07;;
36653;SDS011;22650;49.350;20.898;2022-11-13T13:54:18;12.20;;;7.30;;
36653;SDS011;22650;49.350;20.898;2022-11-13T13:57:13;17.60;;;8.95;;
36653;SDS011;22650;49.350;20.898;2022-11-13T14:00:10;16.98;;;8.93;;
36653;SDS011;22650;49.350;20.898;2022-11-13T14:03:11;17.60;;;8.88;;
36653;SDS011;22650;49.350;20.898;2022-11-13T14:06:09;15.05;;;8.63;;
36653;SDS011;22650;49.350;20.898;2022-11-13T14:09:09;20.83;;;9.73;;
36653;SDS011;22650;49.350;20.898;2022-11-13T14:12:16;13.82;;;7.30;;
36653;SDS011;22650;49.350;20.898;2022-11-13T14:15:17;13.65;;;7.20;;
36653;SDS011;22650;49.350;20.898;2022-11-13T14:18:14;15.63;;;7.15;;
36653;SDS011;22650;49.350;20.898;2022-11-13T14:21:09;17.20;;;9.00;;
36653;SDS011;22650;49.350;20.898;2022-11-13T14:24:07;17.95;;;8.98;;
36653;SDS011;22650;49.350;20.898;2022-11-13T14:27:04;15.45;;;9.13;;
36653;SDS011;22650;49.350;20.898;2022-11-13T14:29:58;20.42;;;10.13;;
36653;SDS011;22650;49.350;20.898;2022-11-13T14:32:53;18.33;;;9.80;;
36653;SDS011;22650;49.350;20.898;2022-11-13T14:35:49;21.10;;;9.73;;
36653;SDS011;22650;49.350;20.898;2022-11-13T14:38:43;21.15;;;10.40;;
36653;SDS011;22650;49.350;20.898;2022-11-13T14:41:44;14.77;;;8.32;;
36653;SDS011;22650;49.350;20.898;2022-11-13T14:44:40;16.55;;;8.82;;
36653;SDS011;22650;49.350;20.898;2022-11-13T14:47:32;19.77;;;9.07;;
36653;SDS011;22650;49.350;20.898;2022-11-13T14:50:29;15.32;;;9.40;;
36653;SDS011;22650;49.350;20.898;2022-11-13T14:53:26;18.98;;;10.25;;
36653;SDS011;22650;49.350;20.898;2022-11-13T14:56:29;38.58;;;18.27;;
36653;SDS011;22650;49.350;20.898;2022-11-13T14:59:24;39.55;;;19.20;;
36653;SDS011;22650;49.350;20.898;2022-11-13T15:02:16;28.58;;;15.55;;
36653;SDS011;22650;49.350;20.898;2022-11-13T15:05:09;20.40;;;10.23;;
36653;SDS011;22650;49.350;20.898;2022-11-13T15:08:02;26.48;;;14.23;;
36653;SDS011;22650;49.350;20.898;2022-11-13T15:10:54;30.75;;;16.27;;
36653;SDS011;22650;49.350;20.898;2022-11-13T15:13:48;46.25;;;21.90;;
36653;SDS011;22650;49.350;20.898;2022-11-13T15:16:40;33.03;;;14.23;;
36653;SDS011;22650;49.350;20.898;2022-11-13T15:19:34;29.80;;;15.30;;
36653;SDS011;22650;49.350;20.898;2022-11-13T15:22:28;27.88;;;13.00;;
36653;SDS011;22650;49.350;20.898;2022-11-13T15:25:22;35.03;;;17.30;;
36653;SDS011;22650;49.350;20.898;2022-11-13T15:28:15;47.60;;;23.65;;
36653;SDS011;22650;49.350;20.898;2022-11-13T15:31:09;54.20;;;19.73;;
36653;SDS011;22650;49.350;20.898;2022-11-13T15:34:09;44.17;;;21.70;;
36653;SDS011;22650;49.350;20.898;2022-11-13T15:37:04;51.45;;;13.55;;
36653;SDS011;22650;49.350;20.898;2022-11-13T15:40:00;31.73;;;14.75;;
36653;SDS011;22650;49.350;20.898;2022-11-13T15:42:55;45.20;;;19.88;;
36653;SDS011;22650;49.350;20.898;2022-11-13T15:45:50;25.75;;;13.13;;
36653;SDS011;22650;49.350;20.898;2022-11-13T15:48:42;57.72;;;25.90;;
36653;SDS011;22650;49.350;20.898;2022-11-13T15:51:35;47.65;;;23.98;;
36653;SDS011;22650;49.350;20.898;2022-11-13T15:54:31;54.50;;;25.17;;
36653;SDS011;22650;49.350;20.898;2022-11-13T15:57:24;115.68;;;55.78;;
36653;SDS011;22650;49.350;20.898;2022-11-13T16:00:20;99.07;;;52.00;;
36653;SDS011;22650;49.350;20.898;2022-11-13T16:03:14;64.35;;;32.67;;
36653;SDS011;22650;49.350;20.898;2022-11-13T16:06:08;44.90;;;22.00;;
36653;SDS011;22650;49.350;20.898;2022-11-13T16:09:02;35.95;;;17.95;;
36653;SDS011;22650;49.350;20.898;2022-11-13T16:11:56;39.88;;;20.58;;
36653;SDS011;22650;49.350;20.898;2022-11-13T16:14:49;55.47;;;24.60;;
36653;SDS011;22650;49.350;20.898;2022-11-13T16:17:43;44.33;;;21.27;;
36653;SDS011;22650;49.350;20.898;2022-11-13T16:20:38;41.92;;;22.17;;
36653;SDS011;22650;49.350;20.898;2022-11-13T16:23:30;44.20;;;21.43;;
36653;SDS011;22650;49.350;20.898;2022-11-13T16:26:23;44.88;;;23.40;;
36653;SDS011;22650;49.350;20.898;2022-11-13T16:29:16;79.60;;;36.60;;
36653;SDS011;22650;49.350;20.898;2022-11-13T16:32:13;69.95;;;30.35;;
36653;SDS011;22650;49.350;20.898;2022-11-13T16:35:10;93.95;;;40.03;;
36653;SDS011;22650;49.350;20.898;2022-11-13T16:38:04;73.13;;;35.05;;
36653;SDS011;22650;49.350;20.898;2022-11-13T16:41:01;79.55;;;34.08;;
36653;SDS011;22650;49.350;20.898;2022-11-13T16:43:53;71.65;;;34.15;;
36653;SDS011;22650;49.350;20.898;2022-11-13T16:46:45;78.53;;;36.05;;
36653;SDS011;22650;49.350;20.898;2022-11-13T16:49:38;84.72;;;35.08;;
36653;SDS011;22650;49.350;20.898;2022-11-13T16:52:32;68.27;;;28.30;;
36653;SDS011;22650;49.350;20.898;2022-11-13T16:55:24;47.85;;;24.25;;
36653;SDS011;22650;49.350;20.898;2022-11-13T16:58:16;56.17;;;24.23;;
36653;SDS011;22650;49.350;20.898;2022-11-13T17:01:11;45.78;;;21.83;;
36653;SDS011;22650;49.350;20.898;2022-11-13T17:04:05;92.43;;;22.80;;
36653;SDS011;22650;49.350;20.898;2022-11-13T17:06:57;52.73;;;19.13;;
36653;SDS011;22650;49.350;20.898;2022-11-13T17:09:51;31.63;;;15.80;;
36653;SDS011;22650;49.350;20.898;2022-11-13T17:13:03;32.53;;;14.57;;
36653;SDS011;22650;49.350;20.898;2022-11-13T17:15:58;48.27;;;20.57;;